createdAt,value
2018-07-05T00:00:09.612Z,99.99
2018-07-05T00:01:09.564Z,99.99
2018-07-05T00:02:09.515Z,99.99
2018-07-05T00:03:09.468Z,99.99
2018-07-05T00:04:09.412Z,99.99
2018-07-05T00:05:09.360Z,99.99
2018-07-05T00:06:09.314Z,99.99
2018-07-05T00:07:09.263Z,99.99
2018-07-05T00:08:09.209Z,99.99
2018-07-05T00:09:09.159Z,99.99
2018-07-05T00:10:09.116Z,99.99
2018-07-05T00:11:09.057Z,99.99
2018-07-05T00:12:09.007Z,99.99
2018-07-05T00:13:08.957Z,99.99
2018-07-05T00:14:08.907Z,99.99
2018-07-05T00:15:08.855Z,99.99
2018-07-05T00:16:08.807Z,99.99
2018-07-05T00:17:08.756Z,99.99
2018-07-05T00:18:08.705Z,99.99
2018-07-05T00:19:08.655Z,99.99
2018-07-05T00:20:08.604Z,99.99
2018-07-05T00:21:08.555Z,99.99
2018-07-05T00:22:08.505Z,99.99
2018-07-05T00:23:08.453Z,99.99
2018-07-05T00:24:08.401Z,99.99
2018-07-05T00:25:08.350Z,99.99
2018-07-05T00:26:08.301Z,99.99
2018-07-05T00:27:08.252Z,99.99
2018-07-05T00:28:08.201Z,99.99
2018-07-05T00:29:08.149Z,99.99
2018-07-05T00:30:08.098Z,99.99
2018-07-05T00:31:08.047Z,99.99
2018-07-05T00:32:07.995Z,99.99
2018-07-05T00:33:07.947Z,99.99
2018-07-05T00:34:07.896Z,99.99
2018-07-05T00:35:07.846Z,99.99
2018-07-05T00:36:07.793Z,99.99
2018-07-05T00:37:07.743Z,99.99
2018-07-05T00:38:07.694Z,99.99
2018-07-05T00:39:07.643Z,99.99
2018-07-05T00:40:07.591Z,99.99
2018-07-05T00:41:07.542Z,99.99
2018-07-05T00:42:07.491Z,99.99
2018-07-05T00:43:07.440Z,99.99
2018-07-05T00:44:07.390Z,99.99
2018-07-05T00:45:07.338Z,99.99
2018-07-05T00:46:07.291Z,99.99
2018-07-05T00:47:07.239Z,99.99
2018-07-05T00:48:07.189Z,99.99
2018-07-05T00:49:07.189Z,99.99
2018-07-05T00:50:07.087Z,99.99
2018-07-05T00:51:07.034Z,99.99
2018-07-05T00:52:06.987Z,99.99
2018-07-05T00:53:06.932Z,99.99
2018-07-05T00:54:06.883Z,99.99
2018-07-05T00:55:06.831Z,99.99
2018-07-05T00:56:06.780Z,99.99
2018-07-05T00:57:06.736Z,99.99
2018-07-05T00:58:06.680Z,99.99
2018-07-05T00:59:06.627Z,99.99
2018-07-05T01:00:06.582Z,99.99
2018-07-05T01:01:06.526Z,99.99
2018-07-05T01:02:06.478Z,99.99
2018-07-05T01:03:06.427Z,99.99
2018-07-05T01:04:06.375Z,99.99
2018-07-05T01:05:06.322Z,99.99
2018-07-05T01:06:06.280Z,99.99
2018-07-05T01:07:06.224Z,99.99
2018-07-05T01:08:06.171Z,99.99
2018-07-05T01:09:06.122Z,99.99
2018-07-05T01:10:06.070Z,99.99
2018-07-05T01:11:06.018Z,99.99
2018-07-05T01:12:05.966Z,99.99
2018-07-05T01:13:05.917Z,99.99
2018-07-05T01:14:05.868Z,99.99
2018-07-05T01:15:05.815Z,99.99
2018-07-05T01:16:05.765Z,99.99
2018-07-05T01:17:05.713Z,99.99
2018-07-05T01:18:05.664Z,99.99
2018-07-05T01:19:05.611Z,99.99
2018-07-05T01:20:05.562Z,99.99
2018-07-05T01:21:05.511Z,99.99
2018-07-05T01:22:05.466Z,99.99
2018-07-05T01:23:05.408Z,99.99
2018-07-05T01:24:05.358Z,99.99
2018-07-05T01:25:05.314Z,99.99
2018-07-05T01:26:05.258Z,99.99
2018-07-05T01:27:05.206Z,99.99
2018-07-05T01:28:05.158Z,99.99
2018-07-05T01:29:05.105Z,99.99
2018-07-05T01:30:05.052Z,99.99
2018-07-05T01:31:05.001Z,99.99
2018-07-05T01:32:04.951Z,99.99
2018-07-05T01:33:04.899Z,99.99
2018-07-05T01:34:04.852Z,99.99
2018-07-05T01:35:04.796Z,99.99
2018-07-05T01:36:04.747Z,99.99
2018-07-05T01:37:04.696Z,99.99
2018-07-05T01:38:04.646Z,99.99
2018-07-05T01:39:04.592Z,99.99
2018-07-05T01:40:04.541Z,99.99
2018-07-05T01:41:04.491Z,99.99
2018-07-05T01:42:04.442Z,99.99
2018-07-05T01:43:04.386Z,99.99
2018-07-05T01:44:04.341Z,99.99
2018-07-05T01:45:04.286Z,99.99
2018-07-05T01:46:04.267Z,99.99
2018-07-05T01:47:04.181Z,99.99
2018-07-05T01:48:04.130Z,99.99
2018-07-05T01:49:04.080Z,99.99
2018-07-05T01:50:04.028Z,99.99
2018-07-05T01:51:03.978Z,99.99
2018-07-05T01:52:03.925Z,99.99
2018-07-05T01:53:03.875Z,99.99
2018-07-05T01:54:03.823Z,99.99
2018-07-05T01:55:03.770Z,99.99
2018-07-05T01:56:03.719Z,99.99
2018-07-05T01:57:03.668Z,99.99
2018-07-05T01:58:03.617Z,99.99
2018-07-05T01:59:03.564Z,99.99
2018-07-05T02:00:03.531Z,99.99
2018-07-05T02:01:03.462Z,99.99
2018-07-05T02:02:03.412Z,99.99
2018-07-05T02:03:03.359Z,99.99
2018-07-05T02:04:03.308Z,99.99
2018-07-05T02:05:03.256Z,99.99
2018-07-05T02:06:03.204Z,99.99
2018-07-05T02:07:03.155Z,99.99
2018-07-05T02:08:03.103Z,99.99
2018-07-05T02:09:03.050Z,99.99
2018-07-05T02:10:03.003Z,99.99
2018-07-05T02:11:02.950Z,99.99
2018-07-05T02:12:02.896Z,99.99
2018-07-05T02:13:02.843Z,99.99
2018-07-05T02:14:02.803Z,99.99
2018-07-05T02:15:02.741Z,99.99
2018-07-05T02:16:02.690Z,99.99
2018-07-05T02:17:02.639Z,99.99
2018-07-05T02:18:02.588Z,99.99
2018-07-05T02:19:02.535Z,99.99
2018-07-05T02:20:02.484Z,99.99
2018-07-05T02:21:02.434Z,99.99
2018-07-05T02:22:02.380Z,99.99
2018-07-05T02:23:02.328Z,99.99
2018-07-05T02:24:02.277Z,99.99
2018-07-05T02:25:02.241Z,99.99
2018-07-05T02:26:02.174Z,99.99
2018-07-05T02:27:02.123Z,99.99
2018-07-05T02:28:02.072Z,99.99
2018-07-05T02:29:02.021Z,99.99
2018-07-05T02:30:01.972Z,99.99
2018-07-05T02:31:01.917Z,99.99
2018-07-05T02:32:01.869Z,99.99
2018-07-05T02:33:01.814Z,99.99
2018-07-05T02:34:01.763Z,99.99
2018-07-05T02:35:01.712Z,99.99
2018-07-05T02:36:01.663Z,99.99
2018-07-05T02:37:01.609Z,99.99
2018-07-05T02:38:01.556Z,99.99
2018-07-05T02:39:01.514Z,99.99
2018-07-05T02:40:01.453Z,99.99
2018-07-05T02:41:01.401Z,99.99
2018-07-05T02:42:01.350Z,99.99
2018-07-05T02:43:01.299Z,99.99
2018-07-05T02:44:01.250Z,99.99
2018-07-05T02:45:01.196Z,99.99
2018-07-05T02:46:01.144Z,99.99
2018-07-05T02:47:01.095Z,99.99
2018-07-05T02:48:01.040Z,99.99
2018-07-05T02:49:00.989Z,99.99
2018-07-05T02:50:00.937Z,99.99
2018-07-05T02:51:00.886Z,99.99
2018-07-05T02:52:00.834Z,99.99
2018-07-05T02:53:00.783Z,99.99
2018-07-05T02:54:00.734Z,99.99
2018-07-05T02:55:00.679Z,99.99
2018-07-05T02:56:00.631Z,99.99
2018-07-05T02:57:00.580Z,99.99
2018-07-05T02:58:00.525Z,99.99
2018-07-05T02:59:00.471Z,99.99
2018-07-05T03:00:00.422Z,99.99
2018-07-05T03:01:00.376Z,99.99
2018-07-05T03:02:00.319Z,99.99
2018-07-05T03:03:00.269Z,99.99
2018-07-05T03:04:00.214Z,99.99
2018-07-05T03:05:00.167Z,99.99
2018-07-05T03:06:00.114Z,99.99
2018-07-05T03:07:00.060Z,99.99
2018-07-05T03:08:00.010Z,99.99
2018-07-05T03:08:59.957Z,99.99
2018-07-05T03:09:59.910Z,99.99
2018-07-05T03:10:59.852Z,99.99
2018-07-05T03:11:59.803Z,99.99
2018-07-05T03:12:59.756Z,99.99
2018-07-05T03:13:59.699Z,99.99
2018-07-05T03:14:59.648Z,99.99
2018-07-05T03:15:59.596Z,99.99
2018-07-05T03:16:59.545Z,99.99
2018-07-05T03:17:59.492Z,99.99
2018-07-05T03:18:59.440Z,99.99
2018-07-05T03:19:59.390Z,99.99
2018-07-05T03:20:59.336Z,99.99
2018-07-05T03:21:59.284Z,99.99
2018-07-05T03:22:59.235Z,99.99
2018-07-05T03:23:59.182Z,99.99
2018-07-05T03:24:59.130Z,99.99
2018-07-05T03:25:59.079Z,99.99
2018-07-05T03:26:59.025Z,99.99
2018-07-05T03:27:58.973Z,99.99
2018-07-05T03:28:58.919Z,99.99
2018-07-05T03:29:58.868Z,99.99
2018-07-05T03:30:58.817Z,99.99
2018-07-05T03:31:58.765Z,99.99
2018-07-05T03:32:58.713Z,99.99
2018-07-05T03:33:58.661Z,99.99
2018-07-05T03:34:58.608Z,99.99
2018-07-05T03:35:58.557Z,99.99
2018-07-05T03:36:58.504Z,99.99
2018-07-05T03:37:58.456Z,99.99
2018-07-05T03:38:58.401Z,99.99
2018-07-05T03:39:58.350Z,99.99
2018-07-05T03:40:58.297Z,99.99
2018-07-05T03:41:58.248Z,99.99
2018-07-05T03:42:58.195Z,99.99
2018-07-05T03:43:58.142Z,99.99
2018-07-05T03:44:58.089Z,99.99
2018-07-05T03:45:58.041Z,99.99
2018-07-05T03:46:57.986Z,99.99
2018-07-05T03:47:57.939Z,99.99
2018-07-05T03:48:57.883Z,99.99
2018-07-05T03:49:57.853Z,99.99
2018-07-05T03:50:57.779Z,99.99
2018-07-05T03:51:57.727Z,99.99
2018-07-05T03:52:57.674Z,99.99
2018-07-05T03:53:57.623Z,99.99
2018-07-05T03:54:57.571Z,99.99
2018-07-05T03:55:57.521Z,99.99
2018-07-05T03:56:57.474Z,99.99
2018-07-05T03:57:57.419Z,99.99
2018-07-05T03:58:57.364Z,99.99
2018-07-05T03:59:57.315Z,99.99
2018-07-05T04:00:57.262Z,99.99
2018-07-05T04:01:57.209Z,99.99
2018-07-05T04:02:57.161Z,99.99
2018-07-05T04:03:57.111Z,99.99
2018-07-05T04:04:57.057Z,99.99
2018-07-05T04:05:57.003Z,99.99
2018-07-05T04:06:56.951Z,99.99
2018-07-05T04:07:56.899Z,99.99
2018-07-05T04:08:56.849Z,99.99
2018-07-05T04:09:56.796Z,99.99
2018-07-05T04:10:56.745Z,99.99
2018-07-05T04:11:56.693Z,99.99
2018-07-05T04:12:56.641Z,99.99
2018-07-05T04:13:56.589Z,99.99
2018-07-05T04:14:56.539Z,99.99
2018-07-05T04:15:56.485Z,99.99
2018-07-05T04:16:56.434Z,99.99
2018-07-05T04:17:56.382Z,99.99
2018-07-05T04:18:56.334Z,99.99
2018-07-05T04:19:56.280Z,99.99
2018-07-05T04:20:56.228Z,99.99
2018-07-05T04:21:56.176Z,99.99
2018-07-05T04:22:56.123Z,99.99
2018-07-05T04:23:56.119Z,99.99
2018-07-05T04:24:56.020Z,99.99
2018-07-05T04:25:55.967Z,99.99
2018-07-05T04:26:55.917Z,99.99
2018-07-05T04:27:55.863Z,99.99
2018-07-05T04:28:55.811Z,99.99
2018-07-05T04:29:55.760Z,99.99
2018-07-05T04:30:55.707Z,99.99
2018-07-05T04:31:55.656Z,99.99
2018-07-05T04:32:55.604Z,99.99
2018-07-05T04:33:55.553Z,99.99
2018-07-05T04:34:55.499Z,99.99
2018-07-05T04:35:55.449Z,99.99
2018-07-05T04:36:55.396Z,99.99
2018-07-05T04:37:55.347Z,99.99
2018-07-05T04:38:55.296Z,99.99
2018-07-05T04:39:55.242Z,99.99
2018-07-05T04:40:55.190Z,99.99
2018-07-05T04:41:55.139Z,99.99
2018-07-05T04:42:55.089Z,99.99
2018-07-05T04:43:55.040Z,99.99
2018-07-05T04:44:54.987Z,99.99
2018-07-05T04:45:54.939Z,99.99
2018-07-05T04:46:54.881Z,99.99
2018-07-05T04:47:54.844Z,99.99
2018-07-05T04:48:54.781Z,99.99
2018-07-05T04:49:54.728Z,99.99
2018-07-05T04:50:54.678Z,99.99
2018-07-05T04:51:54.626Z,99.99
2018-07-05T04:52:54.574Z,99.99
2018-07-05T04:53:54.531Z,99.99
2018-07-05T04:54:54.474Z,99.99
2018-07-05T04:55:54.423Z,99.99
2018-07-05T04:56:54.370Z,99.99
2018-07-05T04:57:54.320Z,99.99
2018-07-05T04:58:54.267Z,99.99
2018-07-05T04:59:54.219Z,99.99
2018-07-05T05:00:54.168Z,99.99
2018-07-05T05:01:54.118Z,99.99
2018-07-05T05:02:54.065Z,99.99
2018-07-05T05:03:54.014Z,99.99
2018-07-05T05:04:53.963Z,99.99
2018-07-05T05:05:53.916Z,99.99
2018-07-05T05:06:53.865Z,99.99
2018-07-05T05:07:53.810Z,99.99
2018-07-05T05:08:53.760Z,99.99
2018-07-05T05:09:53.709Z,99.99
2018-07-05T05:10:53.656Z,99.99
2018-07-05T05:11:53.612Z,99.99
2018-07-05T05:12:53.559Z,99.99
2018-07-05T05:13:53.504Z,99.99
2018-07-05T05:14:53.468Z,99.99
2018-07-05T05:15:53.402Z,99.99
2018-07-05T05:16:53.350Z,99.99
2018-07-05T05:17:53.301Z,99.99
2018-07-05T05:18:53.295Z,99.99
2018-07-05T05:19:53.199Z,99.99
2018-07-05T05:20:53.149Z,99.99
2018-07-05T05:21:53.098Z,99.99
2018-07-05T05:22:53.048Z,99.99
2018-07-05T05:23:52.996Z,99.99
2018-07-05T05:24:52.953Z,99.99
2018-07-05T05:25:52.897Z,99.99
2018-07-05T05:26:52.846Z,99.99
2018-07-05T05:27:52.795Z,99.99
2018-07-05T05:28:52.747Z,99.99
2018-07-05T05:29:52.707Z,99.99
2018-07-05T05:30:52.648Z,99.99
2018-07-05T05:31:52.599Z,99.99
2018-07-05T05:32:52.547Z,99.99
2018-07-05T05:33:52.496Z,99.99
2018-07-05T05:34:52.448Z,99.99
2018-07-05T05:35:52.398Z,99.99
2018-07-05T05:36:52.347Z,99.99
2018-07-05T05:37:52.372Z,99.99
2018-07-05T05:38:52.322Z,99.99
2018-07-05T05:39:52.199Z,99.99
2018-07-05T05:40:52.148Z,99.99
2018-07-05T05:41:52.100Z,99.99
2018-07-05T05:42:52.048Z,99.99
2018-07-05T05:43:51.998Z,99.99
2018-07-05T05:44:51.951Z,99.99
2018-07-05T05:45:51.901Z,99.99
2018-07-05T05:46:51.849Z,99.99
2018-07-05T05:47:51.799Z,99.99
2018-07-05T05:48:51.752Z,99.99
2018-07-05T05:49:51.700Z,99.99
2018-07-05T05:50:51.650Z,99.99
2018-07-05T05:51:51.600Z,99.99
2018-07-05T05:52:51.554Z,99.99
2018-07-05T05:53:51.505Z,99.99
2018-07-05T05:54:51.453Z,99.99
2018-07-05T05:55:51.406Z,99.99
2018-07-05T05:56:51.360Z,99.99
2018-07-05T05:57:51.304Z,99.99
2018-07-05T05:58:51.255Z,99.99
2018-07-05T05:59:51.205Z,99.99
2018-07-05T06:00:51.156Z,99.99
2018-07-05T06:01:51.162Z,99.99
2018-07-05T06:02:51.062Z,99.99
2018-07-05T06:03:51.006Z,99.99
2018-07-05T06:04:50.960Z,99.99
2018-07-05T06:05:50.907Z,99.99
2018-07-05T06:06:50.858Z,99.99
2018-07-05T06:07:50.809Z,99.99
2018-07-05T06:08:50.761Z,99.99
2018-07-05T06:09:50.711Z,99.99
2018-07-05T06:10:50.664Z,99.99
2018-07-05T06:11:50.611Z,99.99
2018-07-05T06:12:50.565Z,99.99
2018-07-05T06:13:50.514Z,99.99
2018-07-05T06:14:50.466Z,99.99
2018-07-05T06:15:50.415Z,99.99
2018-07-05T06:16:50.368Z,99.99
2018-07-05T06:17:50.317Z,99.99
2018-07-05T06:18:50.267Z,99.99
2018-07-05T06:19:50.218Z,99.99
2018-07-05T06:20:50.170Z,99.99
2018-07-05T06:21:50.122Z,99.99
2018-07-05T06:22:50.071Z,99.99
2018-07-05T06:23:50.023Z,99.99
2018-07-05T06:24:49.975Z,99.99
2018-07-05T06:25:49.927Z,99.99
2018-07-05T06:26:49.875Z,99.99
2018-07-05T06:27:49.828Z,99.99
2018-07-05T06:28:49.777Z,99.99
2018-07-05T06:29:49.730Z,99.99
2018-07-05T06:30:49.683Z,99.99
2018-07-05T06:31:49.632Z,99.99
2018-07-05T06:32:49.583Z,99.99
2018-07-05T06:33:49.534Z,99.99
2018-07-05T06:34:49.487Z,99.99
2018-07-05T06:35:49.436Z,99.99
2018-07-05T06:36:49.390Z,99.99
2018-07-05T06:37:49.341Z,99.99
2018-07-05T06:38:49.290Z,99.99
2018-07-05T06:39:49.247Z,99.99
2018-07-05T06:40:49.194Z,99.99
2018-07-05T06:41:49.145Z,99.99
2018-07-05T06:42:49.099Z,99.99
2018-07-05T06:43:49.048Z,99.99
2018-07-05T06:44:49.000Z,99.99
2018-07-05T06:45:48.953Z,99.99
2018-07-05T06:46:48.902Z,99.99
2018-07-05T06:47:48.854Z,99.99
2018-07-05T06:48:48.808Z,99.99
2018-07-05T06:49:48.758Z,99.99
2018-07-05T06:50:48.709Z,99.99
2018-07-05T06:51:48.663Z,99.99
2018-07-05T06:52:48.615Z,99.99
2018-07-05T06:53:48.570Z,99.99
2018-07-05T06:54:48.518Z,98.72
2018-07-05T06:55:48.475Z,97.19
2018-07-05T06:56:48.424Z,97.86
2018-07-05T06:57:48.375Z,98.34
2018-07-05T06:58:48.327Z,97.96
2018-07-05T06:59:48.278Z,98.44
2018-07-05T07:00:48.235Z,97.38
2018-07-05T07:01:48.182Z,95.40
2018-07-05T07:02:48.134Z,95.79
2018-07-05T07:03:48.086Z,96.08
2018-07-05T07:04:48.039Z,95.79
2018-07-05T07:05:47.991Z,96.37
2018-07-05T07:06:47.943Z,96.17
2018-07-05T07:07:47.896Z,95.59
2018-07-05T07:08:47.850Z,95.89
2018-07-05T07:09:47.804Z,94.92
2018-07-05T07:10:47.756Z,95.06
2018-07-05T07:11:47.706Z,94.73
2018-07-05T07:12:47.658Z,95.36
2018-07-05T07:13:47.612Z,94.96
2018-07-05T07:14:47.566Z,94.20
2018-07-05T07:15:47.517Z,93.43
2018-07-05T07:16:47.475Z,93.43
2018-07-05T07:17:47.434Z,93.43
2018-07-05T07:18:47.376Z,93.91
2018-07-05T07:19:47.328Z,93.71
2018-07-05T07:20:47.287Z,94.78
2018-07-05T07:21:47.234Z,93.13
2018-07-05T07:22:47.187Z,93.04
2018-07-05T07:23:47.140Z,94.10
2018-07-05T07:24:47.093Z,92.75
2018-07-05T07:25:47.045Z,93.04
2018-07-05T07:26:46.998Z,93.13
2018-07-05T07:27:46.953Z,92.94
2018-07-05T07:28:46.904Z,92.36
2018-07-05T07:29:46.858Z,92.56
2018-07-05T07:30:46.810Z,93.57
2018-07-05T07:31:46.843Z,92.02
2018-07-05T07:32:46.719Z,92.41
2018-07-05T07:33:46.670Z,92.60
2018-07-05T07:34:46.622Z,92.99
2018-07-05T07:35:46.577Z,92.89
2018-07-05T07:36:46.529Z,92.55
2018-07-05T07:37:46.483Z,92.46
2018-07-05T07:38:46.436Z,90.33
2018-07-05T07:39:46.390Z,90.81
2018-07-05T07:40:46.341Z,90.91
2018-07-05T07:41:46.295Z,90.14
2018-07-05T07:42:46.248Z,89.56
2018-07-05T07:43:46.201Z,89.65
2018-07-05T07:44:46.160Z,89.37
2018-07-05T07:45:46.184Z,89.17
2018-07-05T07:46:46.065Z,88.98
2018-07-05T07:47:46.015Z,89.85
2018-07-05T07:48:45.971Z,89.99
2018-07-05T07:49:45.922Z,89.51
2018-07-05T07:50:45.875Z,89.51
2018-07-05T07:51:45.830Z,88.64
2018-07-05T07:52:45.783Z,89.03
2018-07-05T07:53:45.736Z,87.38
2018-07-05T07:54:45.689Z,87.43
2018-07-05T07:55:45.644Z,85.49
2018-07-05T07:56:45.599Z,86.07
2018-07-05T07:57:45.552Z,87.23
2018-07-05T07:58:45.503Z,85.69
2018-07-05T07:59:45.463Z,86.31
2018-07-05T08:00:45.419Z,85.35
2018-07-05T08:01:45.365Z,84.28
2018-07-05T08:02:45.319Z,85.35
2018-07-05T08:03:45.273Z,84.32
2018-07-05T08:04:45.227Z,84.52
2018-07-05T08:05:45.181Z,85.39
2018-07-05T08:06:45.138Z,86.35
2018-07-05T08:07:45.090Z,82.97
2018-07-05T08:08:45.047Z,82.35
2018-07-05T08:09:44.997Z,83.80
2018-07-05T08:10:44.951Z,83.99
2018-07-05T08:11:44.905Z,83.99
2018-07-05T08:12:44.861Z,84.09
2018-07-05T08:13:44.815Z,84.38
2018-07-05T08:14:44.768Z,84.86
2018-07-05T08:15:44.724Z,85.93
2018-07-05T08:16:44.676Z,84.47
2018-07-05T08:17:44.631Z,85.63
2018-07-05T08:18:44.585Z,84.24
2018-07-05T08:19:44.539Z,84.82
2018-07-05T08:20:44.493Z,85.88
2018-07-05T08:21:44.447Z,85.01
2018-07-05T08:22:44.400Z,86.65
2018-07-05T08:23:44.355Z,86.17
2018-07-05T08:24:44.310Z,86.46
2018-07-05T08:25:44.300Z,85.88
2018-07-05T08:26:44.218Z,84.82
2018-07-05T08:27:44.170Z,85.78
2018-07-05T08:28:44.125Z,86.07
2018-07-05T08:29:44.079Z,86.56
2018-07-05T08:30:44.034Z,86.69
2018-07-05T08:31:43.987Z,86.02
2018-07-05T08:32:43.943Z,86.31
2018-07-05T08:33:43.897Z,88.34
2018-07-05T08:34:43.850Z,87.66
2018-07-05T08:35:43.806Z,87.66
2018-07-05T08:36:43.758Z,87.18
2018-07-05T08:37:43.717Z,87.43
2018-07-05T08:38:43.670Z,87.23
2018-07-05T08:39:43.621Z,86.41
2018-07-05T08:40:43.576Z,86.31
2018-07-05T08:41:43.531Z,87.52
2018-07-05T08:42:43.486Z,87.66
2018-07-05T08:43:43.438Z,87.27
2018-07-05T08:44:43.445Z,87.18
2018-07-05T08:45:43.349Z,86.69
2018-07-05T08:46:43.313Z,86.31
2018-07-05T08:47:43.256Z,86.31
2018-07-05T08:48:43.213Z,87.47
2018-07-05T08:49:43.165Z,87.66
2018-07-05T08:50:43.120Z,87.57
2018-07-05T08:51:43.075Z,87.37
2018-07-05T08:52:43.028Z,88.87
2018-07-05T08:53:42.984Z,87.76
2018-07-05T08:54:42.937Z,87.57
2018-07-05T08:55:42.892Z,87.18
2018-07-05T08:56:42.850Z,88.05
2018-07-05T08:57:42.801Z,86.69
2018-07-05T08:58:42.754Z,87.47
2018-07-05T08:59:42.710Z,87.57
2018-07-05T09:00:42.664Z,87.66
2018-07-05T09:01:42.621Z,87.18
2018-07-05T09:02:42.571Z,86.60
2018-07-05T09:03:42.528Z,86.31
2018-07-05T09:04:42.481Z,86.35
2018-07-05T09:05:42.436Z,84.90
2018-07-05T09:06:42.390Z,85.29
2018-07-05T09:07:42.345Z,84.13
2018-07-05T09:08:42.298Z,84.52
2018-07-05T09:09:42.254Z,84.52
2018-07-05T09:10:42.207Z,83.55
2018-07-05T09:11:42.163Z,83.41
2018-07-05T09:12:42.121Z,83.80
2018-07-05T09:13:42.071Z,86.02
2018-07-05T09:14:42.027Z,84.09
2018-07-05T09:15:41.981Z,83.70
2018-07-05T09:16:41.937Z,84.09
2018-07-05T09:17:41.958Z,84.38
2018-07-05T09:18:41.844Z,84.71
2018-07-05T09:19:41.799Z,84.03
2018-07-05T09:20:41.753Z,84.13
2018-07-05T09:21:41.709Z,83.84
2018-07-05T09:22:41.663Z,83.36
2018-07-05T09:23:41.663Z,84.42
2018-07-05T09:24:41.576Z,84.13
2018-07-05T09:25:41.531Z,83.70
2018-07-05T09:26:41.551Z,83.12
2018-07-05T09:27:41.440Z,83.99
2018-07-05T09:28:41.391Z,84.38
2018-07-05T09:29:41.346Z,81.77
2018-07-05T09:30:41.298Z,82.73
2018-07-05T09:31:41.252Z,82.93
2018-07-05T09:32:41.208Z,81.96
2018-07-05T09:33:41.164Z,83.51
2018-07-05T09:34:41.117Z,83.41
2018-07-05T09:35:41.070Z,81.87
2018-07-05T09:36:41.026Z,81.57
2018-07-05T09:37:41.074Z,82.45
2018-07-05T09:38:40.941Z,82.50
2018-07-05T09:39:40.888Z,82.45
2018-07-05T09:40:40.842Z,84.95
2018-07-05T09:41:40.797Z,83.70
2018-07-05T09:42:40.751Z,84.14
2018-07-05T09:43:40.706Z,83.41
2018-07-05T09:44:40.660Z,82.73
2018-07-05T09:45:40.618Z,82.73
2018-07-05T09:46:40.570Z,82.64
2018-07-05T09:47:40.528Z,82.98
2018-07-05T09:48:40.476Z,82.83
2018-07-05T09:49:40.433Z,82.54
2018-07-05T09:50:40.385Z,83.61
2018-07-05T09:51:40.341Z,83.12
2018-07-05T09:52:40.310Z,83.22
2018-07-05T09:53:40.249Z,81.38
2018-07-05T09:54:40.204Z,81.77
2018-07-05T09:55:40.159Z,80.32
2018-07-05T09:56:40.112Z,78.19
2018-07-05T09:57:40.067Z,77.51
2018-07-05T09:58:40.023Z,77.22
2018-07-05T09:59:39.974Z,78.48
2018-07-05T10:00:39.931Z,79.16
2018-07-05T10:01:39.886Z,78.29
2018-07-05T10:02:39.837Z,78.19
2018-07-05T10:03:39.827Z,78.48
2018-07-05T10:04:39.747Z,78.29
2018-07-05T10:05:39.701Z,79.54
2018-07-05T10:06:39.655Z,78.48
2018-07-05T10:07:39.612Z,79.93
2018-07-05T10:08:39.563Z,78.67
2018-07-05T10:09:39.519Z,78.29
2018-07-05T10:10:39.472Z,78.44
2018-07-05T10:11:39.428Z,78.67
2018-07-05T10:12:39.380Z,78.58
2018-07-05T10:13:39.602Z,79.64
2018-07-05T10:14:39.289Z,78.96
2018-07-05T10:15:39.246Z,78.54
2018-07-05T10:16:39.199Z,78.64
2018-07-05T10:17:39.154Z,79.99
2018-07-05T10:18:39.107Z,79.74
2018-07-05T10:19:39.062Z,78.83
2018-07-05T10:20:39.015Z,77.00
2018-07-05T10:21:38.970Z,79.99
2018-07-05T10:22:38.925Z,79.70
2018-07-05T10:23:38.878Z,80.47
2018-07-05T10:24:38.839Z,79.31
2018-07-05T10:25:38.787Z,77.19
2018-07-05T10:26:38.741Z,76.61
2018-07-05T10:27:38.696Z,77.57
2018-07-05T10:28:38.648Z,78.15
2018-07-05T10:29:38.604Z,78.06
2018-07-05T10:30:38.560Z,80.66
2018-07-05T10:31:38.513Z,81.44
2018-07-05T10:32:38.469Z,80.72
2018-07-05T10:33:38.420Z,80.82
2018-07-05T10:34:38.374Z,81.78
2018-07-05T10:35:38.328Z,82.26
2018-07-05T10:36:38.283Z,81.20
2018-07-05T10:37:38.237Z,80.14
2018-07-05T10:38:38.189Z,80.05
2018-07-05T10:39:38.156Z,80.14
2018-07-05T10:40:38.105Z,79.95
2018-07-05T10:41:38.052Z,80.43
2018-07-05T10:42:38.008Z,80.82
2018-07-05T10:43:37.958Z,81.68
2018-07-05T10:44:37.916Z,82.65
2018-07-05T10:45:37.867Z,82.65
2018-07-05T10:46:37.821Z,83.04
2018-07-05T10:47:37.776Z,82.26
2018-07-05T10:48:37.734Z,81.40
2018-07-05T10:49:37.682Z,81.30
2018-07-05T10:50:37.634Z,82.75
2018-07-05T10:51:37.589Z,83.23
2018-07-05T10:52:37.543Z,83.42
2018-07-05T10:53:37.497Z,82.75
2018-07-05T10:54:37.450Z,83.14
2018-07-05T10:55:37.403Z,83.91
2018-07-05T10:56:37.357Z,84.00
2018-07-05T10:57:37.318Z,83.96
2018-07-05T10:58:37.264Z,83.96
2018-07-05T10:59:37.218Z,84.64
2018-07-05T11:00:37.232Z,84.44
2018-07-05T11:01:37.126Z,84.64
2018-07-05T11:02:37.078Z,85.31
2018-07-05T11:03:37.032Z,85.75
2018-07-05T11:04:36.990Z,86.14
2018-07-05T11:05:36.940Z,86.52
2018-07-05T11:06:36.891Z,85.37
2018-07-05T11:07:36.844Z,86.24
2018-07-05T11:08:36.798Z,87.64
2018-07-05T11:09:36.752Z,88.31
2018-07-05T11:10:36.702Z,89.67
2018-07-05T11:11:36.656Z,91.06
2018-07-05T11:12:36.609Z,90.97
2018-07-05T11:13:36.563Z,92.61
2018-07-05T11:14:36.696Z,93.33
2018-07-05T11:15:36.467Z,94.10
2018-07-05T11:16:36.428Z,94.87
2018-07-05T11:17:36.372Z,95.98
2018-07-05T11:18:36.324Z,96.56
2018-07-05T11:19:36.278Z,97.24
2018-07-05T11:20:36.229Z,98.77
2018-07-05T11:21:36.181Z,98.49
2018-07-05T11:22:36.132Z,99.99
2018-07-05T11:23:36.090Z,99.99
2018-07-05T11:24:36.040Z,99.99
2018-07-05T11:25:35.990Z,99.99
2018-07-05T11:26:35.941Z,99.99
2018-07-05T11:27:35.895Z,99.99
2018-07-05T11:28:35.846Z,99.99
2018-07-05T11:29:35.801Z,99.99
2018-07-05T11:30:35.747Z,99.99
2018-07-05T11:31:35.699Z,99.99
2018-07-05T11:32:35.655Z,99.99
2018-07-05T11:33:35.603Z,99.99
2018-07-05T11:34:35.553Z,99.99
2018-07-05T11:35:35.507Z,99.99
2018-07-05T11:36:35.458Z,99.99
2018-07-05T11:37:35.410Z,99.99
2018-07-05T11:38:35.357Z,99.99
2018-07-05T11:39:35.311Z,99.99
2018-07-05T11:40:35.264Z,99.99
2018-07-05T11:41:35.213Z,99.99
2018-07-05T11:42:35.356Z,99.99
2018-07-05T11:43:35.114Z,99.99
2018-07-05T11:44:35.070Z,99.99
2018-07-05T11:45:35.019Z,99.99
2018-07-05T11:46:34.972Z,99.99
2018-07-05T11:47:34.922Z,99.99
2018-07-05T11:48:34.872Z,99.99
2018-07-05T11:49:34.824Z,99.99
2018-07-05T11:50:34.773Z,99.99
2018-07-05T11:51:34.724Z,99.99
2018-07-05T11:52:34.674Z,99.99
2018-07-05T11:53:34.630Z,99.99
2018-07-05T11:54:34.578Z,99.99
2018-07-05T11:55:34.529Z,99.99
2018-07-05T11:56:34.481Z,99.99
2018-07-05T11:57:34.432Z,99.99
2018-07-05T11:58:34.417Z,99.99
2018-07-05T11:59:34.333Z,99.99
2018-07-05T12:00:34.284Z,99.99
2018-07-05T12:01:34.233Z,99.99
2018-07-05T12:02:34.185Z,99.99
2018-07-05T12:03:34.138Z,99.99
2018-07-05T12:04:34.088Z,99.99
2018-07-05T12:05:34.049Z,99.99
2018-07-05T12:06:33.988Z,99.99
2018-07-05T12:07:33.940Z,99.99
2018-07-05T12:08:33.905Z,99.99
2018-07-05T12:09:33.843Z,99.99
2018-07-05T12:10:33.795Z,99.99
2018-07-05T12:11:33.745Z,99.99
2018-07-05T12:12:33.700Z,99.99
2018-07-05T12:13:33.646Z,99.99
2018-07-05T12:14:33.598Z,99.99
2018-07-05T12:15:33.550Z,99.99
2018-07-05T12:16:33.504Z,99.99
2018-07-05T12:17:33.452Z,99.99
2018-07-05T12:18:33.405Z,99.99
2018-07-05T12:19:33.358Z,99.99
2018-07-05T12:20:33.306Z,99.99
2018-07-05T12:21:33.260Z,99.99
2018-07-05T12:22:33.207Z,99.99
2018-07-05T12:23:33.159Z,99.99
2018-07-05T12:24:33.111Z,99.99
2018-07-05T12:25:33.062Z,99.99
2018-07-05T12:26:33.014Z,99.99
2018-07-05T12:27:32.966Z,99.99
2018-07-05T12:28:32.917Z,99.99
2018-07-05T12:29:32.892Z,99.99
2018-07-05T12:30:32.818Z,99.99
2018-07-05T12:31:32.770Z,99.99
2018-07-05T12:32:32.720Z,99.99
2018-07-05T12:33:32.703Z,99.99
2018-07-05T12:34:32.624Z,99.99
2018-07-05T12:35:32.576Z,99.99
2018-07-05T12:36:32.529Z,99.99
2018-07-05T12:37:32.482Z,99.99
2018-07-05T12:38:32.431Z,99.99
2018-07-05T12:39:32.384Z,99.99
2018-07-05T12:40:32.336Z,99.99
2018-07-05T12:41:32.287Z,99.99
2018-07-05T12:42:32.240Z,99.99
2018-07-05T12:43:32.188Z,99.99
2018-07-05T12:44:32.141Z,99.99
2018-07-05T12:45:32.093Z,99.99
2018-07-05T12:46:32.046Z,99.99
2018-07-05T12:47:31.997Z,99.99
2018-07-05T12:48:31.956Z,99.99
2018-07-05T12:49:31.901Z,99.99
2018-07-05T12:50:31.853Z,99.99
2018-07-05T12:51:31.804Z,99.99